createdAt,value
2023-05-19T00:56:07.928Z,4.70
2023-05-19T01:06:08.239Z,4.20
2023-05-19T01:16:07.986Z,4.20
2023-05-19T01:26:07.954Z,4.20
2023-05-19T01:36:07.952Z,4.20
2023-05-19T01:46:08.012Z,4.20
2023-05-19T01:56:07.958Z,4.40
2023-05-19T02:06:07.976Z,4.20
2023-05-19T02:16:08.036Z,4.70
2023-05-19T02:26:08.043Z,4.70
2023-05-19T02:46:08.041Z,4.80
2023-05-19T02:56:07.970Z,5.20
2023-05-19T03:06:07.969Z,4.90
2023-05-19T03:16:08.055Z,4.60
2023-05-19T03:26:07.989Z,4.90
2023-05-19T03:36:07.988Z,5.20
2023-05-19T03:46:08.035Z,5.00
2023-05-19T03:56:07.996Z,5.70
2023-05-19T04:06:08.011Z,6.00
2023-05-19T04:16:08.120Z,6.80
2023-05-19T04:26:08.022Z,7.10
2023-05-19T04:36:08.041Z,7.30
2023-05-19T04:46:08.075Z,7.10
2023-05-19T04:56:08.031Z,6.50
2023-05-19T05:06:08.019Z,5.30
2023-05-19T05:16:08.079Z,5.40
2023-05-19T05:26:08.025Z,4.20
2023-05-19T05:36:08.066Z,4.80
2023-05-19T05:46:08.103Z,4.30
2023-05-19T05:56:08.029Z,3.70
2023-05-19T06:06:08.068Z,4.00
2023-05-19T06:16:08.140Z,3.70
2023-05-19T06:26:08.060Z,3.50
2023-05-19T06:36:08.075Z,3.50
2023-05-19T06:46:08.089Z,3.50
2023-05-19T06:56:08.064Z,6.80
2023-05-19T07:06:08.611Z,3.20
2023-05-19T07:16:08.170Z,2.90
2023-05-19T07:26:08.080Z,2.30
2023-05-19T07:36:08.082Z,2.90
2023-05-19T07:46:08.139Z,2.40
2023-05-19T07:56:08.086Z,2.00
2023-05-19T08:06:08.090Z,2.90
2023-05-19T08:16:08.471Z,3.60
2023-05-19T08:26:08.104Z,11.00
2023-05-19T08:36:08.179Z,4.10
2023-05-19T08:46:08.312Z,6.80
2023-05-19T08:56:08.117Z,3.80
2023-05-19T09:06:08.227Z,4.50
2023-05-19T09:16:08.363Z,3.90
2023-05-19T09:26:08.268Z,4.00
2023-05-19T09:36:08.153Z,4.10
2023-05-19T09:46:08.321Z,3.80
2023-05-19T09:56:08.208Z,3.20
2023-05-19T10:06:08.151Z,3.60
2023-05-19T10:16:08.157Z,4.10
2023-05-19T10:26:08.138Z,4.70
2023-05-19T10:36:08.164Z,5.00
2023-05-19T10:46:08.156Z,6.70
2023-05-19T10:56:08.166Z,5.50
2023-05-19T11:06:08.170Z,4.80
2023-05-19T11:16:08.235Z,4.80
2023-05-19T11:26:08.183Z,4.50
2023-05-19T11:36:08.274Z,5.00
2023-05-19T11:46:08.292Z,5.00
2023-05-19T11:56:08.197Z,6.00
2023-05-19T12:06:08.314Z,4.20
2023-05-19T12:16:08.236Z,3.60
2023-05-19T12:26:08.212Z,6.10
2023-05-19T12:36:08.219Z,5.30
2023-05-19T12:46:08.289Z,4.40
2023-05-19T12:56:08.214Z,4.30
2023-05-19T13:06:08.218Z,4.60
2023-05-19T13:16:08.291Z,5.70
2023-05-19T13:26:08.380Z,5.90
2023-05-19T13:36:08.230Z,5.90
2023-05-19T13:46:08.377Z,6.40
2023-05-19T13:56:08.283Z,6.30
2023-05-19T14:06:08.303Z,6.30
2023-05-19T14:16:08.336Z,5.20
2023-05-19T14:26:08.340Z,5.00
2023-05-19T14:36:08.264Z,5.80
2023-05-19T14:46:08.287Z,29.90
2023-05-19T14:56:08.341Z,13.90
2023-05-19T15:06:08.294Z,9.10
2023-05-19T15:16:17.031Z,6.40
2023-05-19T15:26:08.270Z,5.70
2023-05-19T15:36:08.279Z,5.40
2023-05-19T15:46:08.303Z,5.60
2023-05-19T15:56:08.298Z,7.80
2023-05-19T16:06:08.297Z,6.20
2023-05-19T16:16:08.354Z,7.20
2023-05-19T16:26:08.322Z,13.30
2023-05-19T16:36:08.390Z,5.90
2023-05-19T16:46:08.366Z,6.30
2023-05-19T16:56:08.343Z,6.50
2023-05-19T17:06:08.368Z,6.60
2023-05-19T17:16:08.316Z,8.20
2023-05-19T17:26:08.340Z,8.30
2023-05-19T17:36:08.349Z,29.10
2023-05-19T17:46:08.380Z,8.60
2023-05-19T17:56:08.336Z,5.90
2023-05-19T18:06:08.367Z,7.50
2023-05-19T18:16:08.390Z,6.50
2023-05-19T18:26:08.343Z,6.30
2023-05-19T18:36:08.423Z,7.30
2023-05-19T18:46:08.399Z,7.50
2023-05-19T18:56:08.442Z,8.60
2023-05-19T19:06:08.369Z,9.60
2023-05-19T19:16:08.385Z,9.60
2023-05-19T19:26:08.576Z,9.80
2023-05-19T19:36:08.374Z,9.50
2023-05-19T19:46:08.392Z,9.90
2023-05-19T19:56:08.389Z,10.30
2023-05-19T20:06:08.407Z,9.80
2023-05-19T20:16:08.419Z,9.90
2023-05-19T20:26:12.748Z,10.70
2023-05-19T20:46:08.451Z,11.00
2023-05-19T20:56:08.525Z,11.60
2023-05-19T21:06:08.428Z,11.50
2023-05-19T21:16:08.414Z,11.20
2023-05-19T21:26:08.433Z,12.80
2023-05-19T21:36:08.421Z,12.30
2023-05-19T21:46:08.489Z,14.50
2023-05-19T21:56:08.514Z,15.90
2023-05-19T22:06:08.464Z,13.30
2023-05-19T22:16:08.463Z,13.70
2023-05-19T22:26:08.490Z,14.70
2023-05-19T22:36:08.441Z,14.80
2023-05-19T22:46:08.570Z,15.10
2023-05-19T22:56:08.458Z,13.90
2023-05-19T23:06:08.458Z,14.10
2023-05-19T23:16:08.485Z,13.50
2023-05-19T23:26:08.486Z,14.40
2023-05-19T23:36:08.493Z,13.80
2023-05-19T23:46:08.631Z,13.70
2023-05-19T23:56:08.483Z,13.80
